sensor_id;sensor_type;location;lat;lon;timestamp;P1;durP1;ratioP1;P2;durP2;ratioP2
7931;SDS011;4011;49.424;10.894;2023-07-28T00:01:50;4.38;;;3.35;;
7931;SDS011;4011;49.424;10.894;2023-07-28T00:07:17;3.72;;;2.50;;
7931;SDS011;4011;49.424;10.894;2023-07-28T00:12:39;3.83;;;2.67;;
7931;SDS011;4011;49.424;10.894;2023-07-28T00:18:02;3.90;;;3.38;;
7931;SDS011;4011;49.424;10.894;2023-07-28T00:23:27;4.30;;;2.78;;
7931;SDS011;4011;49.424;10.894;2023-07-28T00:28:49;4.45;;;2.97;;
7931;SDS011;4011;49.424;10.894;2023-07-28T00:34:11;4.13;;;2.75;;
7931;SDS011;4011;49.424;10.894;2023-07-28T00:39:34;3.42;;;2.65;;
7931;SDS011;4011;49.424;10.894;2023-07-28T00:44:56;4.35;;;3.00;;
7931;SDS011;4011;49.424;10.894;2023-07-28T00:50:18;4.10;;;2.60;;
7931;SDS011;4011;49.424;10.894;2023-07-28T00:55:53;4.10;;;2.60;;
7931;SDS011;4011;49.424;10.894;2023-07-28T01:01:16;4.32;;;3.42;;
7931;SDS011;4011;49.424;10.894;2023-07-28T01:06:43;4.03;;;2.40;;
7931;SDS011;4011;49.424;10.894;2023-07-28T01:12:13;3.63;;;2.60;;
7931;SDS011;4011;49.424;10.894;2023-07-28T01:17:37;4.13;;;3.33;;
7931;SDS011;4011;49.424;10.894;2023-07-28T01:23:05;3.72;;;2.60;;
7931;SDS011;4011;49.424;10.894;2023-07-28T01:28:43;4.00;;;2.75;;
7931;SDS011;4011;49.424;10.894;2023-07-28T01:34:15;3.95;;;3.03;;
7931;SDS011;4011;49.424;10.894;2023-07-28T01:39:40;3.50;;;2.40;;
7931;SDS011;4011;49.424;10.894;2023-07-28T01:45:04;4.53;;;2.72;;
7931;SDS011;4011;49.424;10.894;2023-07-28T01:50:27;3.60;;;2.75;;
7931;SDS011;4011;49.424;10.894;2023-07-28T01:55:54;3.60;;;2.58;;
7931;SDS011;4011;49.424;10.894;2023-07-28T02:01:24;3.95;;;2.58;;
7931;SDS011;4011;49.424;10.894;2023-07-28T02:06:46;3.58;;;2.55;;
7931;SDS011;4011;49.424;10.894;2023-07-28T02:12:15;4.18;;;2.67;;
7931;SDS011;4011;49.424;10.894;2023-07-28T02:17:41;3.63;;;2.42;;
7931;SDS011;4011;49.424;10.894;2023-07-28T02:23:05;4.18;;;2.67;;
7931;SDS011;4011;49.424;10.894;2023-07-28T02:28:31;3.72;;;3.00;;
7931;SDS011;4011;49.424;10.894;2023-07-28T02:34:01;3.63;;;2.55;;
7931;SDS011;4011;49.424;10.894;2023-07-28T02:39:23;4.35;;;2.60;;
7931;SDS011;4011;49.424;10.894;2023-07-28T02:44:45;3.75;;;2.53;;
7931;SDS011;4011;49.424;10.894;2023-07-28T02:50:09;4.60;;;2.88;;
7931;SDS011;4011;49.424;10.894;2023-07-28T02:55:34;3.83;;;2.47;;
7931;SDS011;4011;49.424;10.894;2023-07-28T03:01:02;3.72;;;2.25;;
7931;SDS011;4011;49.424;10.894;2023-07-28T03:06:28;4.53;;;2.80;;
7931;SDS011;4011;49.424;10.894;2023-07-28T03:11:52;3.70;;;2.50;;
7931;SDS011;4011;49.424;10.894;2023-07-28T03:17:16;3.95;;;2.50;;
7931;SDS011;4011;49.424;10.894;2023-07-28T03:22:48;4.30;;;2.78;;
7931;SDS011;4011;49.424;10.894;2023-07-28T03:28:19;3.90;;;2.60;;
7931;SDS011;4011;49.424;10.894;2023-07-28T03:33:42;3.92;;;2.40;;
7931;SDS011;4011;49.424;10.894;2023-07-28T03:39:10;4.07;;;2.50;;
7931;SDS011;4011;49.424;10.894;2023-07-28T03:44:38;3.55;;;2.50;;
7931;SDS011;4011;49.424;10.894;2023-07-28T03:50:01;4.13;;;2.60;;
7931;SDS011;4011;49.424;10.894;2023-07-28T03:55:26;3.75;;;2.55;;
7931;SDS011;4011;49.424;10.894;2023-07-28T04:01:02;3.70;;;2.53;;
7931;SDS011;4011;49.424;10.894;2023-07-28T04:06:39;3.92;;;2.20;;
7931;SDS011;4011;49.424;10.894;2023-07-28T04:12:02;3.83;;;2.70;;
7931;SDS011;4011;49.424;10.894;2023-07-28T04:17:27;3.95;;;2.78;;
7931;SDS011;4011;49.424;10.894;2023-07-28T04:22:49;3.45;;;2.25;;
7931;SDS011;4011;49.424;10.894;2023-07-28T04:28:12;4.75;;;2.50;;
7931;SDS011;4011;49.424;10.894;2023-07-28T04:33:40;4.82;;;3.42;;
7931;SDS011;4011;49.424;10.894;2023-07-28T04:39:02;4.80;;;3.03;;
7931;SDS011;4011;49.424;10.894;2023-07-28T04:44:29;5.85;;;2.70;;
7931;SDS011;4011;49.424;10.894;2023-07-28T04:49:52;5.30;;;2.90;;
7931;SDS011;4011;49.424;10.894;2023-07-28T04:55:16;4.65;;;2.95;;
7931;SDS011;4011;49.424;10.894;2023-07-28T05:06:34;6.80;;;2.83;;
7931;SDS011;4011;49.424;10.894;2023-07-28T05:12:05;3.83;;;2.60;;
7931;SDS011;4011;49.424;10.894;2023-07-28T05:17:33;4.70;;;2.72;;
7931;SDS011;4011;49.424;10.894;2023-07-28T05:23:02;4.22;;;2.95;;
7931;SDS011;4011;49.424;10.894;2023-07-28T05:28:27;5.13;;;2.83;;
7931;SDS011;4011;49.424;10.894;2023-07-28T05:34:11;4.00;;;2.70;;
7931;SDS011;4011;49.424;10.894;2023-07-28T05:39:47;3.78;;;2.75;;
7931;SDS011;4011;49.424;10.894;2023-07-28T05:45:18;4.43;;;3.10;;
7931;SDS011;4011;49.424;10.894;2023-07-28T05:50:44;4.00;;;2.72;;
7931;SDS011;4011;49.424;10.894;2023-07-28T05:56:22;4.68;;;2.55;;
7931;SDS011;4011;49.424;10.894;2023-07-28T06:01:51;4.07;;;2.75;;
7931;SDS011;4011;49.424;10.894;2023-07-28T06:07:18;4.53;;;2.97;;
7931;SDS011;4011;49.424;10.894;2023-07-28T06:12:57;4.50;;;2.75;;
7931;SDS011;4011;49.424;10.894;2023-07-28T06:18:34;4.22;;;2.90;;
7931;SDS011;4011;49.424;10.894;2023-07-28T06:23:56;3.55;;;2.65;;
7931;SDS011;4011;49.424;10.894;2023-07-28T06:29:23;5.60;;;2.72;;
7931;SDS011;4011;49.424;10.894;2023-07-28T06:34:46;4.18;;;2.80;;
7931;SDS011;4011;49.424;10.894;2023-07-28T06:40:09;4.22;;;2.85;;
7931;SDS011;4011;49.424;10.894;2023-07-28T06:45:38;5.35;;;2.70;;
7931;SDS011;4011;49.424;10.894;2023-07-28T06:51:02;4.70;;;2.88;;
7931;SDS011;4011;49.424;10.894;2023-07-28T06:56:26;4.53;;;3.00;;
7931;SDS011;4011;49.424;10.894;2023-07-28T07:01:55;3.88;;;3.00;;
7931;SDS011;4011;49.424;10.894;2023-07-28T07:07:18;4.22;;;2.47;;
7931;SDS011;4011;49.424;10.894;2023-07-28T07:12:44;4.57;;;2.95;;
7931;SDS011;4011;49.424;10.894;2023-07-28T07:18:13;3.80;;;3.05;;
7931;SDS011;4011;49.424;10.894;2023-07-28T07:23:37;3.80;;;2.85;;
7931;SDS011;4011;49.424;10.894;2023-07-28T07:28:59;4.75;;;2.60;;
7931;SDS011;4011;49.424;10.894;2023-07-28T07:34:22;5.35;;;3.78;;
7931;SDS011;4011;49.424;10.894;2023-07-28T07:39:53;4.65;;;2.75;;
7931;SDS011;4011;49.424;10.894;2023-07-28T07:45:31;4.00;;;2.70;;
7931;SDS011;4011;49.424;10.894;2023-07-28T07:51:17;5.88;;;2.75;;
7931;SDS011;4011;49.424;10.894;2023-07-28T07:56:54;4.40;;;3.50;;
7931;SDS011;4011;49.424;10.894;2023-07-28T08:02:22;3.72;;;2.85;;
7931;SDS011;4011;49.424;10.894;2023-07-28T08:07:49;4.47;;;2.83;;
7931;SDS011;4011;49.424;10.894;2023-07-28T08:19:05;3.97;;;2.80;;
7931;SDS011;4011;49.424;10.894;2023-07-28T08:24:29;4.90;;;2.75;;
7931;SDS011;4011;49.424;10.894;2023-07-28T08:30:09;4.80;;;3.30;;
7931;SDS011;4011;49.424;10.894;2023-07-28T08:35:47;4.78;;;2.58;;
7931;SDS011;4011;49.424;10.894;2023-07-28T08:41:14;4.90;;;3.33;;
7931;SDS011;4011;49.424;10.894;2023-07-28T08:46:49;4.50;;;2.80;;
7931;SDS011;4011;49.424;10.894;2023-07-28T08:52:42;3.92;;;2.63;;
7931;SDS011;4011;49.424;10.894;2023-07-28T09:03:46;4.75;;;2.90;;
7931;SDS011;4011;49.424;10.894;2023-07-28T09:09:26;3.60;;;2.60;;
7931;SDS011;4011;49.424;10.894;2023-07-28T09:15:03;4.43;;;3.20;;
7931;SDS011;4011;49.424;10.894;2023-07-28T09:20:42;3.45;;;2.70;;
7931;SDS011;4011;49.424;10.894;2023-07-28T09:26:25;4.18;;;3.20;;
7931;SDS011;4011;49.424;10.894;2023-07-28T09:32:05;4.70;;;2.80;;
7931;SDS011;4011;49.424;10.894;2023-07-28T09:37:31;4.65;;;3.05;;
7931;SDS011;4011;49.424;10.894;2023-07-28T09:42:54;4.97;;;3.00;;
7931;SDS011;4011;49.424;10.894;2023-07-28T09:48:25;4.18;;;2.35;;
7931;SDS011;4011;49.424;10.894;2023-07-28T09:59:52;5.03;;;2.42;;
7931;SDS011;4011;49.424;10.894;2023-07-28T10:05:18;3.25;;;2.50;;
7931;SDS011;4011;49.424;10.894;2023-07-28T10:11:05;3.60;;;2.38;;
7931;SDS011;4011;49.424;10.894;2023-07-28T10:16:40;4.47;;;2.35;;
7931;SDS011;4011;49.424;10.894;2023-07-28T10:22:15;3.92;;;2.20;;
7931;SDS011;4011;49.424;10.894;2023-07-28T10:27:50;3.45;;;2.45;;
7931;SDS011;4011;49.424;10.894;2023-07-28T10:33:28;3.45;;;2.22;;
7931;SDS011;4011;49.424;10.894;2023-07-28T10:39:12;4.38;;;2.50;;
7931;SDS011;4011;49.424;10.894;2023-07-28T10:44:46;4.07;;;2.30;;
7931;SDS011;4011;49.424;10.894;2023-07-28T10:50:36;3.40;;;2.45;;
7931;SDS011;4011;49.424;10.894;2023-07-28T10:56:12;3.75;;;2.30;;
7931;SDS011;4011;49.424;10.894;2023-07-28T11:01:37;4.07;;;2.15;;
7931;SDS011;4011;49.424;10.894;2023-07-28T11:19:15;3.28;;;2.53;;
7931;SDS011;4011;49.424;10.894;2023-07-28T11:24:49;3.47;;;2.05;;
7931;SDS011;4011;49.424;10.894;2023-07-28T11:30:12;2.92;;;1.85;;
7931;SDS011;4011;49.424;10.894;2023-07-28T11:35:45;4.28;;;2.40;;
7931;SDS011;4011;49.424;10.894;2023-07-28T11:41:11;3.25;;;2.00;;
7931;SDS011;4011;49.424;10.894;2023-07-28T11:46:42;4.32;;;2.13;;
7931;SDS011;4011;49.424;10.894;2023-07-28T11:58:20;3.30;;;2.47;;
7931;SDS011;4011;49.424;10.894;2023-07-28T12:03:55;2.83;;;1.80;;
7931;SDS011;4011;49.424;10.894;2023-07-28T12:15:41;3.10;;;1.90;;
7931;SDS011;4011;49.424;10.894;2023-07-28T12:21:08;3.47;;;1.85;;
7931;SDS011;4011;49.424;10.894;2023-07-28T12:26:48;2.70;;;1.73;;
7931;SDS011;4011;49.424;10.894;2023-07-28T12:44:48;3.10;;;1.90;;
7931;SDS011;4011;49.424;10.894;2023-07-28T12:50:27;2.67;;;1.77;;
7931;SDS011;4011;49.424;10.894;2023-07-28T12:56:03;2.50;;;1.70;;
7931;SDS011;4011;49.424;10.894;2023-07-28T13:07:33;2.50;;;1.70;;
7931;SDS011;4011;49.424;10.894;2023-07-28T13:19:29;4.45;;;2.10;;
7931;SDS011;4011;49.424;10.894;2023-07-28T13:25:25;3.25;;;1.73;;
7931;SDS011;4011;49.424;10.894;2023-07-28T13:42:42;2.85;;;1.70;;
7931;SDS011;4011;49.424;10.894;2023-07-28T13:53:49;2.72;;;1.67;;
7931;SDS011;4011;49.424;10.894;2023-07-28T13:59:12;3.42;;;1.80;;
7931;SDS011;4011;49.424;10.894;2023-07-28T14:04:34;2.80;;;2.25;;
7931;SDS011;4011;49.424;10.894;2023-07-28T14:09:55;2.47;;;1.67;;
7931;SDS011;4011;49.424;10.894;2023-07-28T14:15:18;2.40;;;1.63;;
7931;SDS011;4011;49.424;10.894;2023-07-28T14:20:39;2.75;;;1.67;;
7931;SDS011;4011;49.424;10.894;2023-07-28T14:26:01;2.90;;;2.05;;
7931;SDS011;4011;49.424;10.894;2023-07-28T14:31:24;3.15;;;2.35;;
7931;SDS011;4011;49.424;10.894;2023-07-28T14:36:45;3.20;;;2.03;;
7931;SDS011;4011;49.424;10.894;2023-07-28T14:42:07;2.88;;;1.80;;
7931;SDS011;4011;49.424;10.894;2023-07-28T14:47:30;2.40;;;1.85;;
7931;SDS011;4011;49.424;10.894;2023-07-28T14:52:51;3.50;;;2.28;;
7931;SDS011;4011;49.424;10.894;2023-07-28T14:58:12;2.58;;;1.67;;
7931;SDS011;4011;49.424;10.894;2023-07-28T15:03:35;2.95;;;1.90;;
7931;SDS011;4011;49.424;10.894;2023-07-28T15:08:57;3.05;;;1.90;;
7931;SDS011;4011;49.424;10.894;2023-07-28T15:14:19;3.08;;;2.22;;
7931;SDS011;4011;49.424;10.894;2023-07-28T15:19:41;2.88;;;2.03;;
7931;SDS011;4011;49.424;10.894;2023-07-28T15:25:03;3.60;;;1.80;;
7931;SDS011;4011;49.424;10.894;2023-07-28T15:30:24;2.58;;;1.77;;
7931;SDS011;4011;49.424;10.894;2023-07-28T15:35:47;3.40;;;2.38;;
7931;SDS011;4011;49.424;10.894;2023-07-28T15:41:09;2.85;;;2.17;;
7931;SDS011;4011;49.424;10.894;2023-07-28T15:46:30;2.50;;;1.80;;
7931;SDS011;4011;49.424;10.894;2023-07-28T15:51:53;2.50;;;1.70;;
7931;SDS011;4011;49.424;10.894;2023-07-28T15:57:14;2.50;;;1.65;;
7931;SDS011;4011;49.424;10.894;2023-07-28T16:02:36;2.80;;;2.10;;
7931;SDS011;4011;49.424;10.894;2023-07-28T16:07:59;3.35;;;1.95;;
7931;SDS011;4011;49.424;10.894;2023-07-28T16:19:07;3.13;;;2.17;;
7931;SDS011;4011;49.424;10.894;2023-07-28T16:24:30;3.08;;;1.80;;
7931;SDS011;4011;49.424;10.894;2023-07-28T16:29:51;2.00;;;1.60;;
7931;SDS011;4011;49.424;10.894;2023-07-28T16:35:13;3.97;;;1.92;;
7931;SDS011;4011;49.424;10.894;2023-07-28T16:40:36;3.08;;;2.42;;
7931;SDS011;4011;49.424;10.894;2023-07-28T16:45:57;3.42;;;1.83;;
7931;SDS011;4011;49.424;10.894;2023-07-28T16:51:19;3.17;;;1.65;;
7931;SDS011;4011;49.424;10.894;2023-07-28T16:56:42;3.92;;;1.80;;
7931;SDS011;4011;49.424;10.894;2023-07-28T17:02:04;2.90;;;2.15;;
7931;SDS011;4011;49.424;10.894;2023-07-28T17:07:25;6.20;;;2.40;;
7931;SDS011;4011;49.424;10.894;2023-07-28T17:12:48;3.20;;;2.00;;
7931;SDS011;4011;49.424;10.894;2023-07-28T17:18:10;3.05;;;1.70;;
7931;SDS011;4011;49.424;10.894;2023-07-28T17:23:31;3.30;;;2.00;;
7931;SDS011;4011;49.424;10.894;2023-07-28T17:28:54;3.45;;;2.42;;
7931;SDS011;4011;49.424;10.894;2023-07-28T17:34:15;3.40;;;1.90;;
7931;SDS011;4011;49.424;10.894;2023-07-28T17:39:36;3.65;;;1.70;;
7931;SDS011;4011;49.424;10.894;2023-07-28T17:45:00;3.65;;;1.80;;
7931;SDS011;4011;49.424;10.894;2023-07-28T17:50:26;3.40;;;2.67;;
7931;SDS011;4011;49.424;10.894;2023-07-28T17:55:48;2.85;;;1.70;;
7931;SDS011;4011;49.424;10.894;2023-07-28T18:01:11;3.33;;;1.98;;
7931;SDS011;4011;49.424;10.894;2023-07-28T18:06:33;3.88;;;1.90;;
7931;SDS011;4011;49.424;10.894;2023-07-28T18:11:54;3.40;;;2.15;;
7931;SDS011;4011;49.424;10.894;2023-07-28T18:17:18;3.22;;;2.00;;
7931;SDS011;4011;49.424;10.894;2023-07-28T18:22:40;3.80;;;1.80;;
7931;SDS011;4011;49.424;10.894;2023-07-28T18:28:01;4.60;;;1.98;;
7931;SDS011;4011;49.424;10.894;2023-07-28T18:33:25;3.00;;;1.92;;
7931;SDS011;4011;49.424;10.894;2023-07-28T18:38:46;3.30;;;2.33;;
7931;SDS011;4011;49.424;10.894;2023-07-28T18:44:08;3.45;;;1.83;;
7931;SDS011;4011;49.424;10.894;2023-07-28T18:49:30;3.83;;;1.90;;
7931;SDS011;4011;49.424;10.894;2023-07-28T18:54:53;2.58;;;1.73;;
7931;SDS011;4011;49.424;10.894;2023-07-28T19:00:14;3.58;;;2.35;;
7931;SDS011;4011;49.424;10.894;2023-07-28T19:05:37;4.50;;;2.00;;
7931;SDS011;4011;49.424;10.894;2023-07-28T19:10:59;3.38;;;1.90;;
7931;SDS011;4011;49.424;10.894;2023-07-28T19:16:20;3.10;;;1.90;;
7931;SDS011;4011;49.424;10.894;2023-07-28T19:21:44;2.95;;;1.88;;
7931;SDS011;4011;49.424;10.894;2023-07-28T19:27:06;4.63;;;2.13;;
7931;SDS011;4011;49.424;10.894;2023-07-28T19:32:28;2.85;;;1.80;;
7931;SDS011;4011;49.424;10.894;2023-07-28T19:37:50;2.60;;;1.70;;
7931;SDS011;4011;49.424;10.894;2023-07-28T19:43:12;4.00;;;2.05;;
7931;SDS011;4011;49.424;10.894;2023-07-28T19:48:33;3.70;;;2.30;;
7931;SDS011;4011;49.424;10.894;2023-07-28T19:53:56;2.78;;;1.83;;
7931;SDS011;4011;49.424;10.894;2023-07-28T19:59:19;4.10;;;2.00;;
7931;SDS011;4011;49.424;10.894;2023-07-28T20:04:41;4.05;;;2.03;;
7931;SDS011;4011;49.424;10.894;2023-07-28T20:10:05;2.90;;;2.38;;
7931;SDS011;4011;49.424;10.894;2023-07-28T20:15:27;2.45;;;1.70;;
7931;SDS011;4011;49.424;10.894;2023-07-28T20:20:48;4.10;;;2.22;;
7931;SDS011;4011;49.424;10.894;2023-07-28T20:26:11;3.30;;;1.98;;
7931;SDS011;4011;49.424;10.894;2023-07-28T20:31:33;3.35;;;1.98;;
7931;SDS011;4011;49.424;10.894;2023-07-28T20:36:54;4.25;;;2.60;;
7931;SDS011;4011;49.424;10.894;2023-07-28T20:42:17;4.38;;;2.03;;
7931;SDS011;4011;49.424;10.894;2023-07-28T20:47:38;4.13;;;2.10;;
7931;SDS011;4011;49.424;10.894;2023-07-28T20:53:00;3.72;;;2.10;;
7931;SDS011;4011;49.424;10.894;2023-07-28T20:58:23;4.63;;;2.15;;
7931;SDS011;4011;49.424;10.894;2023-07-28T21:03:45;2.85;;;1.90;;
7931;SDS011;4011;49.424;10.894;2023-07-28T21:09:06;3.90;;;2.10;;
7931;SDS011;4011;49.424;10.894;2023-07-28T21:14:30;3.47;;;1.98;;
7931;SDS011;4011;49.424;10.894;2023-07-28T21:19:51;5.28;;;2.40;;
7931;SDS011;4011;49.424;10.894;2023-07-28T21:25:13;4.00;;;2.30;;
7931;SDS011;4011;49.424;10.894;2023-07-28T21:30:36;3.70;;;2.15;;
7931;SDS011;4011;49.424;10.894;2023-07-28T21:35:57;4.80;;;2.20;;
7931;SDS011;4011;49.424;10.894;2023-07-28T21:41:19;3.55;;;2.08;;
7931;SDS011;4011;49.424;10.894;2023-07-28T21:46:42;3.35;;;2.25;;
7931;SDS011;4011;49.424;10.894;2023-07-28T21:52:03;3.20;;;1.80;;
7931;SDS011;4011;49.424;10.894;2023-07-28T21:57:25;3.38;;;2.00;;
7931;SDS011;4011;49.424;10.894;2023-07-28T22:02:47;3.63;;;1.90;;
7931;SDS011;4011;49.424;10.894;2023-07-28T22:08:09;3.38;;;2.20;;
7931;SDS011;4011;49.424;10.894;2023-07-28T22:13:31;3.72;;;2.30;;
7931;SDS011;4011;49.424;10.894;2023-07-28T22:18:54;2.78;;;1.80;;
7931;SDS011;4011;49.424;10.894;2023-07-28T22:24:16;3.88;;;2.10;;
7931;SDS011;4011;49.424;10.894;2023-07-28T22:29:37;3.40;;;2.08;;
7931;SDS011;4011;49.424;10.894;2023-07-28T22:35:00;5.28;;;2.30;;
7931;SDS011;4011;49.424;10.894;2023-07-28T22:40:22;3.33;;;2.00;;
7931;SDS011;4011;49.424;10.894;2023-07-28T22:45:43;5.57;;;2.08;;
7931;SDS011;4011;49.424;10.894;2023-07-28T22:51:06;3.83;;;1.95;;
7931;SDS011;4011;49.424;10.894;2023-07-28T22:56:28;2.95;;;2.20;;
7931;SDS011;4011;49.424;10.894;2023-07-28T23:01:49;3.17;;;1.95;;
7931;SDS011;4011;49.424;10.894;2023-07-28T23:07:12;3.40;;;1.95;;
7931;SDS011;4011;49.424;10.894;2023-07-28T23:12:33;2.88;;;1.90;;
7931;SDS011;4011;49.424;10.894;2023-07-28T23:17:55;3.13;;;2.00;;
7931;SDS011;4011;49.424;10.894;2023-07-28T23:23:19;3.40;;;2.00;;
7931;SDS011;4011;49.424;10.894;2023-07-28T23:28:42;3.30;;;1.98;;
7931;SDS011;4011;49.424;10.894;2023-07-28T23:34:03;3.58;;;2.00;;
7931;SDS011;4011;49.424;10.894;2023-07-28T23:39:26;3.65;;;1.90;;
7931;SDS011;4011;49.424;10.894;2023-07-28T23:44:47;2.80;;;2.03;;
7931;SDS011;4011;49.424;10.894;2023-07-28T23:50:09;2.47;;;1.80;;
7931;SDS011;4011;49.424;10.894;2023-07-28T23:55:32;2.95;;;1.80;;
